Time;durP1;ratioP1;P1;durP2;ratioP2;P2;SDS_P1;SDS_P2;PMS_P1;PMS_P2;Temp;Humidity;BMP_temperature;BMP_pressure;BME280_temperature;BME280_humidity;BME280_pressure;Samples;Min_cycle;Max_cycle;Signal;HPM_P1;HPM_P2
2023/09/24 00:01:22;;;;;;;3.87;2.80;;;;;;;16.11;59.58;99476.47;6860326;28;20234;-86
2023/09/24 00:04:43;;;;;;;4.00;2.57;;;;;;;16.26;58.45;99489.72;6860403;28;20225;-85
2023/09/24 00:08:05;;;;;;;4.13;2.73;;;;;;;15.95;57.67;99479.78;6860463;28;20281;-86
2023/09/24 00:11:28;;;;;;;6.23;3.00;;;;;;;14.94;60.75;99490.94;6835790;28;20289;-86
2023/09/24 00:14:49;;;;;;;4.43;3.00;;;;;;;15.35;60.18;99477.75;6833665;29;20288;-85
2023/09/24 00:18:11;;;;;;;3.23;2.70;;;;;;;15.53;60.74;99496.03;6834433;29;20301;-85
2023/09/24 00:21:32;;;;;;;5.47;2.93;;;;;;;15.74;59.87;99492.94;6833397;29;20321;-86
2023/09/24 00:24:54;;;;;;;4.00;2.63;;;;;;;15.65;59.50;99480.66;6834089;29;20261;-86
2023/09/24 00:28:17;;;;;;;6.27;2.77;;;;;;;15.72;58.52;99503.19;6835200;28;20304;-85
2023/09/24 00:31:38;;;;;;;5.10;2.77;;;;;;;15.26;59.16;99430.13;6860219;28;20738;-85
2023/09/24 00:35:00;;;;;;;6.43;2.93;;;;;;;15.39;59.37;99495.28;6860438;28;20283;-85
2023/09/24 00:38:21;;;;;;;3.53;3.20;;;;;;;15.38;59.59;99499.06;6860709;28;20241;-86
2023/09/24 00:41:45;;;;;;;3.03;2.60;;;;;;;15.50;59.11;99508.16;6860103;28;20300;-86
2023/09/24 00:45:11;;;;;;;3.73;3.00;;;;;;;15.64;58.75;99498.84;6859943;28;20251;-85
2023/09/24 00:48:33;;;;;;;5.37;2.80;;;;;;;15.46;58.75;99496.06;6860639;28;20199;-85
2023/09/24 00:51:54;;;;;;;2.70;2.50;;;;;;;15.49;58.89;99502.94;6859302;28;20211;-85
2023/09/24 00:55:17;;;;;;;2.90;2.60;;;;;;;15.39;58.67;99516.19;6860612;28;20819;-85
2023/09/24 00:58:39;;;;;;;4.07;2.70;;;;;;;15.46;58.50;99500.69;6862151;28;20278;-85
2023/09/24 01:02:02;;;;;;;3.77;2.70;;;;;;;15.38;58.97;99519.94;6864231;28;20776;-86
2023/09/24 01:05:24;;;;;;;2.97;2.50;;;;;;;15.34;58.46;99525.00;6864821;28;20202;-85
2023/09/24 01:08:45;;;;;;;3.17;2.43;;;;;;;15.26;58.53;99517.06;6865449;28;20214;-85
2023/09/24 01:12:20;;;;;;;4.20;2.80;;;;;;;14.87;59.60;99528.09;6863963;28;20226;-85
2023/09/24 01:15:44;;;;;;;2.90;2.50;;;;;;;15.00;59.97;99522.66;6864927;28;20194;-86
2023/09/24 01:19:07;;;;;;;3.97;2.67;;;;;;;15.25;59.13;99529.00;6864454;28;20341;-86
2023/09/24 01:22:30;;;;;;;4.23;2.60;;;;;;;15.14;58.66;99524.25;6864195;28;20280;-85
2023/09/24 01:25:51;;;;;;;3.73;2.77;;;;;;;14.87;59.40;99530.00;6863710;28;20201;-85
2023/09/24 01:29:13;;;;;;;4.10;2.87;;;;;;;14.74;59.02;99527.34;6863749;28;20893;-85
2023/09/24 01:32:35;;;;;;;4.50;2.83;;;;;;;14.66;59.70;99528.41;6863246;28;20280;-85
2023/09/24 01:35:57;;;;;;;3.73;2.83;;;;;;;14.87;59.09;99528.09;6864118;28;20209;-85
2023/09/24 01:39:25;;;;;;;3.33;2.80;;;;;;;14.56;60.12;99525.31;6863851;28;20217;-85
2023/09/24 01:42:47;;;;;;;4.07;2.70;;;;;;;14.51;60.01;99535.97;6863968;28;20228;-86
2023/09/24 01:46:08;;;;;;;4.07;2.63;;;;;;;14.60;60.14;99526.56;6863618;28;20289;-86
2023/09/24 01:49:31;;;;;;;3.67;2.60;;;;;;;14.63;59.76;99536.97;6864572;28;20251;-86
2023/09/24 01:52:52;;;;;;;3.30;2.33;;;;;;;14.73;59.29;99537.38;6864061;28;20225;-86
2023/09/24 01:56:17;;;;;;;7.27;2.90;;;;;;;14.38;58.72;99529.72;6864019;28;20796;-86
2023/09/24 01:59:39;;;;;;;6.33;2.80;;;;;;;14.53;59.30;99528.47;6864613;28;20368;-86
2023/09/24 02:03:05;;;;;;;3.27;2.70;;;;;;;14.31;59.30;99526.19;6863572;28;20260;-85
2023/09/24 02:06:27;;;;;;;2.87;2.57;;;;;;;14.55;58.86;99539.91;6883412;28;20343;-86
2023/09/24 02:09:49;;;;;;;5.03;2.47;;;;;;;14.72;57.69;99538.41;6890456;28;20212;-86
2023/09/24 02:13:12;;;;;;;4.73;2.80;;;;;;;14.34;59.71;99539.34;6889747;28;20607;-85
2023/09/24 02:16:35;;;;;;;2.80;2.60;;;;;;;14.24;60.17;99539.78;6890793;28;20685;-86
2023/09/24 02:19:57;;;;;;;3.07;2.50;;;;;;;14.13;60.45;99521.41;6890348;28;20339;-86
2023/09/24 02:23:18;;;;;;;4.00;2.70;;;;;;;14.08;60.13;99534.75;6889848;28;20319;-86
2023/09/24 02:26:41;;;;;;;3.27;2.83;;;;;;;13.96;60.76;99554.56;6890689;28;20702;-86
2023/09/24 02:30:05;;;;;;;3.03;2.70;;;;;;;14.29;59.84;99553.50;6890149;28;20208;-86
2023/09/24 02:33:27;;;;;;;2.73;2.50;;;;;;;13.91;60.60;99563.31;6889026;28;20230;-86
2023/09/24 02:36:49;;;;;;;3.10;2.73;;;;;;;13.90;60.60;99555.38;6890344;28;20697;-86
2023/09/24 02:40:15;;;;;;;3.37;2.77;;;;;;;13.80;61.10;99554.97;6889689;28;20211;-86
2023/09/24 02:43:37;;;;;;;4.83;2.53;;;;;;;13.84;60.94;99554.34;6889806;28;20228;-86
2023/09/24 02:47:00;;;;;;;4.27;2.50;;;;;;;13.80;60.22;99573.97;6889971;28;20688;-86
2023/09/24 02:50:24;;;;;;;2.87;2.50;;;;;;;14.10;60.08;99562.47;6879859;28;20641;-86
2023/09/24 02:53:46;;;;;;;4.63;2.93;;;;;;;14.10;59.97;99565.19;6866044;28;20386;-86
2023/09/24 02:57:09;;;;;;;3.53;2.97;;;;;;;13.86;60.25;99565.00;6864478;28;20243;-85
2023/09/24 03:00:34;;;;;;;3.10;2.70;;;;;;;13.53;60.67;99488.25;6862994;28;20268;-86
2023/09/24 03:03:59;;;;;;;3.13;2.53;;;;;;;14.17;59.26;99579.56;6862846;28;20722;-86
2023/09/24 03:07:20;;;;;;;3.90;2.90;;;;;;;13.94;59.28;99583.75;6866255;28;20560;-86
2023/09/24 03:10:42;;;;;;;4.00;3.00;;;;;;;13.72;59.79;99591.25;6866623;28;20244;-86
2023/09/24 03:14:03;;;;;;;2.97;2.67;;;;;;;13.53;61.30;99589.34;6865656;28;20324;-86
2023/09/24 03:17:25;;;;;;;3.20;2.90;;;;;;;13.69;61.44;99585.41;6861892;28;20330;-86
2023/09/24 03:20:48;;;;;;;2.87;2.60;;;;;;;13.33;61.02;99520.72;6861544;28;20323;-86
2023/09/24 03:24:14;;;;;;;4.17;2.77;;;;;;;13.85;59.88;99575.00;6862273;28;20668;-86
2023/09/24 03:27:35;;;;;;;4.33;2.57;;;;;;;13.63;60.33;99592.47;6861451;28;20352;-86
2023/09/24 03:30:57;;;;;;;2.90;2.70;;;;;;;13.83;60.06;99612.31;6862016;28;20236;-85
2023/09/24 03:34:18;;;;;;;2.93;2.67;;;;;;;14.03;59.71;99599.63;6862058;28;20232;-85
2023/09/24 03:37:43;;;;;;;2.80;2.60;;;;;;;13.78;60.69;99608.53;6862106;28;20303;-86
2023/09/24 03:41:05;;;;;;;3.07;2.70;;;;;;;13.65;60.63;99616.66;6874759;28;20229;-86
2023/09/24 03:44:26;;;;;;;6.70;3.20;;;;;;;13.75;60.39;99614.41;6880617;28;20257;-85
2023/09/24 03:47:48;;;;;;;3.30;3.00;;;;;;;13.62;61.15;99617.09;6880325;28;20202;-85
2023/09/24 03:51:10;;;;;;;4.87;3.30;;;;;;;13.32;61.46;99627.38;6865814;28;20216;-86
2023/09/24 03:54:33;;;;;;;5.70;2.97;;;;;;;13.75;61.02;99634.19;6861865;28;20233;-86
2023/09/24 03:57:54;;;;;;;4.30;3.90;;;;;;;13.92;60.24;99640.88;6861554;28;20347;-85
2023/09/24 04:01:17;;;;;;;3.87;3.17;;;;;;;13.73;60.27;99630.00;6861092;28;20300;-86
2023/09/24 04:04:39;;;;;;;3.20;2.80;;;;;;;13.52;60.51;99631.00;6861770;28;20240;-86
2023/09/24 04:08:03;;;;;;;3.47;2.70;;;;;;;13.37;61.22;99648.44;6861171;28;20220;-86
2023/09/24 04:11:27;;;;;;;3.10;2.80;;;;;;;13.31;60.94;99654.66;6860948;28;20209;-86
2023/09/24 04:14:53;;;;;;;5.47;3.20;;;;;;;13.43;61.48;99655.75;6860782;28;20237;-86
2023/09/24 04:18:15;;;;;;;4.27;3.10;;;;;;;13.43;61.46;99666.59;6861145;28;20208;-86
2023/09/24 04:21:36;;;;;;;5.30;2.83;;;;;;;13.29;61.95;99654.88;6860406;28;20232;-86
2023/09/24 04:24:58;;;;;;;3.30;2.97;;;;;;;13.46;60.95;99658.09;6861473;28;20702;-86
2023/09/24 04:28:21;;;;;;;3.33;3.00;;;;;;;13.63;60.66;99675.66;6861014;28;20299;-86
2023/09/24 04:31:43;;;;;;;3.60;2.73;;;;;;;13.25;60.91;99644.66;6860328;28;20205;-86
2023/09/24 04:35:06;;;;;;;4.80;3.00;;;;;;;12.99;61.22;99658.06;6864972;28;20229;-86
2023/09/24 04:38:27;;;;;;;5.33;3.20;;;;;;;13.23;61.86;99668.41;6866085;28;20201;-85
2023/09/24 04:41:49;;;;;;;3.80;2.70;;;;;;;13.11;61.48;99687.06;6865311;28;20233;-86
2023/09/24 04:45:12;;;;;;;3.17;2.67;;;;;;;13.43;61.16;99672.88;6866377;28;20801;-85
2023/09/24 04:48:35;;;;;;;4.60;3.20;;;;;;;13.41;61.02;99690.34;6866466;28;20823;-85
2023/09/24 04:51:56;;;;;;;3.60;3.30;;;;;;;13.27;61.25;99685.91;6864710;28;20216;-86
2023/09/24 04:55:18;;;;;;;2.80;2.60;;;;;;;13.65;60.27;99681.69;6865635;28;20201;-85
2023/09/24 04:58:39;;;;;;;3.20;2.90;;;;;;;13.16;60.23;99689.19;6865721;28;20548;-85
2023/09/24 05:02:02;;;;;;;3.40;2.93;;;;;;;12.96;60.50;99688.22;6864704;28;20228;-86
2023/09/24 05:05:24;;;;;;;3.67;3.07;;;;;;;13.44;59.61;99700.78;6841718;28;20209;-85
2023/09/24 05:08:46;;;;;;;4.10;3.00;;;;;;;13.26;60.01;99693.19;6838503;29;20353;-85
2023/09/24 05:12:07;;;;;;;6.03;3.07;;;;;;;13.06;61.35;99703.09;6847702;28;20295;-85
2023/09/24 05:15:29;;;;;;;4.67;2.77;;;;;;;13.16;60.74;99705.44;6865741;28;20189;-85
2023/09/24 05:18:52;;;;;;;2.77;2.57;;;;;;;12.98;60.20;99714.06;6865166;28;20220;-85
2023/09/24 05:22:13;;;;;;;3.27;2.80;;;;;;;13.06;60.53;99710.38;6864204;28;20320;-85
2023/09/24 05:25:36;;;;;;;4.20;2.90;;;;;;;12.88;60.77;99712.72;6864917;28;20296;-86
2023/09/24 05:28:58;;;;;;;4.87;4.37;;;;;;;13.29;60.04;99721.75;6865265;28;20377;-85
2023/09/24 05:32:20;;;;;;;7.67;5.60;;;;;;;13.06;60.94;99722.06;6864187;28;20698;-85
2023/09/24 05:35:42;;;;;;;6.77;4.50;;;;;;;13.02;61.36;99720.75;6865079;28;20236;-86
2023/09/24 05:39:05;;;;;;;6.07;4.97;;;;;;;13.31;60.46;99722.38;6864822;28;20240;-85
2023/09/24 05:42:26;;;;;;;4.03;3.63;;;;;;;13.39;60.11;99720.34;6861501;28;20617;-85
2023/09/24 05:45:48;;;;;;;3.20;2.83;;;;;;;13.31;59.82;99725.94;6851630;28;20232;-85
2023/09/24 05:49:10;;;;;;;3.43;2.80;;;;;;;13.51;59.63;99717.91;6862249;28;20303;-85
2023/09/24 05:52:32;;;;;;;3.20;2.90;;;;;;;13.62;58.52;99731.72;6863794;28;20377;-85
2023/09/24 05:55:56;;;;;;;4.37;2.83;;;;;;;13.53;59.03;99705.00;6864484;28;20274;-85
2023/09/24 05:59:19;;;;;;;3.27;2.77;;;;;;;13.82;58.59;99735.34;6864717;28;20293;-86
2023/09/24 06:02:40;;;;;;;3.83;3.33;;;;;;;13.31;59.86;99733.22;6864026;28;20567;-85
2023/09/24 06:06:02;;;;;;;3.77;3.10;;;;;;;13.20;60.29;99723.78;6865078;28;20209;-86
2023/09/24 06:09:25;;;;;;;4.30;3.00;;;;;;;13.24;60.08;99738.63;6862983;28;20209;-85
2023/09/24 06:12:47;;;;;;;4.40;3.10;;;;;;;12.95;60.37;99733.44;6862801;28;20236;-85
2023/09/24 06:16:08;;;;;;;4.67;3.23;;;;;;;13.40;61.20;99743.69;6863516;28;20664;-86
2023/09/24 06:19:30;;;;;;;4.03;3.00;;;;;;;13.94;60.38;99751.84;6863380;28;20275;-85
2023/09/24 06:22:53;;;;;;;4.10;3.20;;;;;;;14.33;58.90;99735.72;6862672;28;20233;-86
2023/09/24 06:26:19;;;;;;;3.67;3.00;;;;;;;14.75;58.43;99740.75;6863719;28;20248;-85
2023/09/24 06:29:40;;;;;;;3.97;2.70;;;;;;;15.10;57.08;99725.91;6870007;28;20235;-86
2023/09/24 06:33:02;;;;;;;3.20;2.90;;;;;;;15.66;56.28;99741.44;6889475;28;20307;-86
2023/09/24 06:36:23;;;;;;;2.80;2.60;;;;;;;15.99;56.12;99733.97;6889637;28;20211;-86
2023/09/24 06:39:44;;;;;;;2.70;2.50;;;;;;;15.86;55.71;99709.56;6891617;28;20356;-86
2023/09/24 06:43:07;;;;;;;3.60;3.00;;;;;;;16.79;54.03;99742.25;6878000;28;20324;-85
2023/09/24 06:46:29;;;;;;;3.10;2.70;;;;;;;17.43;52.57;99745.47;6864011;28;20221;-87
2023/09/24 06:49:51;;;;;;;4.10;2.80;;;;;;;17.63;51.31;99748.78;6864129;28;20255;-83
2023/09/24 06:53:12;;;;;;;4.10;3.23;;;;;;;17.35;52.77;99745.69;6864273;28;20277;-85
2023/09/24 06:56:34;;;;;;;3.73;2.70;;;;;;;17.05;53.24;99760.28;6863867;28;20678;-84
2023/09/24 06:59:57;;;;;;;3.60;3.30;;;;;;;17.53;53.01;99755.84;6865406;28;20289;-83
2023/09/24 07:03:18;;;;;;;2.83;2.53;;;;;;;17.77;51.85;99754.91;6856222;28;20231;-83
2023/09/24 07:06:40;;;;;;;4.47;2.77;;;;;;;17.43;52.37;99687.34;6864908;28;20577;-84
2023/09/24 07:10:02;;;;;;;3.10;2.80;;;;;;;17.84;52.22;99758.41;6863688;28;20208;-84
2023/09/24 07:13:23;;;;;;;4.03;2.80;;;;;;;18.44;51.98;99758.25;6863448;28;20302;-83
2023/09/24 07:16:48;;;;;;;2.93;2.60;;;;;;;18.15;51.56;99688.06;6865772;28;20270;-84
2023/09/24 07:20:11;;;;;;;3.20;2.50;;;;;;;18.72;50.57;99747.53;6865221;28;20213;-84
2023/09/24 07:23:32;;;;;;;5.50;2.73;;;;;;;18.60;50.80;99680.25;6864494;28;20264;-84
2023/09/24 07:26:54;;;;;;;4.10;2.90;;;;;;;19.02;49.96;99756.47;6866101;28;20216;-85
2023/09/24 07:30:16;;;;;;;3.67;2.70;;;;;;;19.58;49.89;99772.31;6865332;28;20298;-84
2023/09/24 07:33:39;;;;;;;3.30;2.50;;;;;;;19.37;50.52;99760.09;6866123;28;20339;-86
2023/09/24 07:37:03;;;;;;;3.73;2.40;;;;;;;19.30;49.72;99755.81;6839078;29;20577;-86
2023/09/24 07:40:24;;;;;;;2.97;2.57;;;;;;;18.48;51.77;99728.56;6845234;28;20241;-84
2023/09/24 07:43:46;;;;;;;3.00;2.70;;;;;;;18.95;51.60;99769.44;6864966;28;20232;-85
2023/09/24 07:47:07;;;;;;;9.37;4.07;;;;;;;19.99;49.25;99761.19;6882949;28;20296;-81
2023/09/24 07:50:30;;;;;;;6.83;4.07;;;;;;;20.53;48.30;99752.41;6896169;28;20223;-86
2023/09/24 07:53:52;;;;;;;17.07;11.10;;;;;;;21.08;46.54;99749.56;6894359;28;20247;-82
2023/09/24 07:57:14;;;;;;;2.73;2.30;;;;;;;21.15;45.84;99738.44;6894666;28;20208;-82
2023/09/24 08:00:36;;;;;;;2.67;2.47;;;;;;;21.02;46.81;99754.41;6894902;28;20200;-81
2023/09/24 08:03:57;;;;;;;4.13;2.63;;;;;;;21.88;45.63;99755.44;6894328;28;20236;-83
2023/09/24 08:07:20;;;;;;;5.27;2.57;;;;;;;21.83;45.56;99756.22;6874538;28;20216;-83
2023/09/24 08:10:42;;;;;;;3.10;2.80;;;;;;;21.73;46.03;99758.00;6874121;28;20351;-83
2023/09/24 08:14:03;;;;;;;5.83;3.80;;;;;;;22.23;45.09;99744.91;6873721;28;20264;-82
2023/09/24 08:17:25;;;;;;;4.23;2.43;;;;;;;21.94;43.84;99762.66;6870628;28;20209;-84
2023/09/24 08:20:47;;;;;;;4.07;2.50;;;;;;;22.34;44.82;99753.00;6867439;28;20440;-82
2023/09/24 08:24:10;;;;;;;4.50;2.33;;;;;;;23.10;42.91;99730.66;6845316;29;20839;-84
2023/09/24 08:27:31;;;;;;;2.67;2.43;;;;;;;22.67;43.18;99725.34;6869522;28;20201;-85
2023/09/24 08:30:53;;;;;;;2.80;2.37;;;;;;;23.05;42.10;99763.66;6869308;28;20245;-84
2023/09/24 08:34:15;;;;;;;3.87;2.37;;;;;;;23.48;41.49;99765.38;6866827;28;20312;-85
2023/09/24 08:37:37;;;;;;;4.13;2.57;;;;;;;23.14;41.81;99751.03;6868918;28;20223;-84
2023/09/24 08:41:00;;;;;;;2.77;2.30;;;;;;;23.50;42.46;99755.78;6871392;28;20252;-84
2023/09/24 08:44:22;;;;;;;3.23;2.13;;;;;;;23.82;41.43;99764.75;6875727;28;20267;-85
2023/09/24 08:47:44;;;;;;;3.50;2.30;;;;;;;24.13;40.25;99758.31;6896638;28;20277;-85
2023/09/24 08:51:07;;;;;;;3.00;2.37;;;;;;;24.17;40.20;99747.56;6877514;28;20205;-83
2023/09/24 08:54:30;;;;;;;2.97;2.60;;;;;;;24.51;39.73;99751.53;6869790;28;20238;-84
2023/09/24 08:57:53;;;;;;;2.73;2.53;;;;;;;24.43;40.42;99744.63;6869247;28;20574;-84
2023/09/24 09:01:15;;;;;;;4.03;2.53;;;;;;;24.76;39.17;99755.22;6867450;28;20210;-83
2023/09/24 09:04:48;;;;;;;2.80;2.10;;;;;;;24.69;39.18;99732.59;6869305;28;20286;-81
2023/09/24 09:08:10;;;;;;;2.40;2.20;;;;;;;24.61;39.79;99744.16;6860767;28;20324;-83
2023/09/24 09:11:39;;;;;;;6.37;2.60;;;;;;;24.15;40.43;99741.50;6867869;28;20603;-83
2023/09/24 09:15:16;;;;;;;2.97;2.13;;;;;;;24.01;38.68;99740.38;6861603;28;20236;-83
2023/09/24 09:18:38;;;;;;;5.53;2.43;;;;;;;25.11;36.73;99740.59;6864882;28;20685;-83
2023/09/24 09:22:16;;;;;;;3.67;2.23;;;;;;;24.90;37.26;99737.00;6867540;28;20202;-83
2023/09/24 09:25:46;;;;;;;3.73;2.17;;;;;;;24.24;37.02;99717.84;6855302;28;20284;-83
2023/09/24 09:29:21;;;;;;;5.07;2.40;;;;;;;24.13;35.08;99716.16;6866250;28;20218;-82
2023/09/24 09:32:44;;;;;;;3.83;2.07;;;;;;;24.59;35.12;99734.50;6856752;28;20320;-83
2023/09/24 09:36:20;;;;;;;4.73;2.27;;;;;;;25.02;34.39;99726.53;6866000;28;20215;-85
2023/09/24 09:39:42;;;;;;;4.27;2.27;;;;;;;25.06;33.53;99688.16;6868012;28;20282;-83
2023/09/24 09:43:05;;;;;;;2.70;2.10;;;;;;;23.99;34.88;99720.50;6867046;28;20330;-82
2023/09/24 09:46:27;;;;;;;3.60;2.10;;;;;;;23.62;36.86;99731.63;6867100;28;20237;-84
2023/09/24 09:49:58;;;;;;;4.27;2.00;;;;;;;24.30;36.25;99698.28;6865192;28;20337;-84
2023/09/24 09:53:22;;;;;;;3.30;2.10;;;;;;;24.36;35.84;99715.69;6848675;28;20236;-83
2023/09/24 09:56:44;;;;;;;3.77;2.33;;;;;;;23.83;36.26;99718.78;6856299;28;20679;-82
2023/09/24 10:00:07;;;;;;;3.43;2.00;;;;;;;24.74;34.53;99715.22;6861253;28;20580;-84
2023/09/24 10:03:30;;;;;;;6.50;3.93;;;;;;;24.87;35.37;99709.97;6857348;28;20228;-83
2023/09/24 10:06:53;;;;;;;3.03;2.40;;;;;;;22.95;37.56;99713.22;6870413;28;20622;-83
2023/09/24 10:10:40;;;;;;;5.00;2.47;;;;;;;24.35;36.26;99711.25;6873563;28;20298;-84
2023/09/24 10:14:02;;;;;;;9.13;4.80;;;;;;;24.10;34.87;99697.41;6872508;28;20238;-84
2023/09/24 10:17:25;;;;;;;2.03;1.83;;;;;;;24.36;35.16;99713.72;6867695;28;20541;-85
2023/09/24 10:21:05;;;;;;;3.70;2.20;;;;;;;24.83;35.10;99699.78;6864857;28;20601;-85
2023/09/24 10:24:49;;;;;;;4.43;2.17;;;;;;;24.26;36.00;99705.44;6862344;28;20582;-85
2023/09/24 10:28:11;;;;;;;3.60;2.30;;;;;;;24.10;35.17;99711.19;6862222;28;20250;-84
2023/09/24 10:31:33;;;;;;;4.67;2.20;;;;;;;24.42;33.85;99703.56;6862475;28;20294;-85
2023/09/24 10:35:13;;;;;;;2.23;1.77;;;;;;;23.53;36.63;99704.81;6863909;28;20268;-85
2023/09/24 10:39:02;;;;;;;4.77;2.30;;;;;;;23.52;36.30;99703.16;6866636;28;20258;-85
2023/09/24 10:42:25;;;;;;;3.17;1.83;;;;;;;23.88;35.79;99694.84;6863769;28;20237;-84
2023/09/24 10:45:52;;;;;;;2.77;2.00;;;;;;;24.53;35.69;99694.19;6862848;28;20205;-85
2023/09/24 10:49:18;;;;;;;2.97;2.23;;;;;;;24.84;32.51;99696.72;6863846;28;20215;-85
2023/09/24 10:52:49;;;;;;;3.50;2.00;;;;;;;25.59;32.92;99651.66;6862161;28;20231;-85
2023/09/24 10:56:11;;;;;;;1.97;1.80;;;;;;;25.99;32.93;99688.25;6863756;28;20205;-85
2023/09/24 10:59:34;;;;;;;2.70;1.90;;;;;;;25.42;32.46;99676.81;6861992;28;20291;-85
2023/09/24 11:02:57;;;;;;;2.37;2.03;;;;;;;24.88;32.67;99695.06;6860417;28;20372;-84
2023/09/24 11:06:19;;;;;;;2.03;1.80;;;;;;;25.74;31.87;99695.78;6861350;28;20212;-85
2023/09/24 11:09:48;;;;;;;2.97;2.20;;;;;;;24.36;31.32;99677.91;6862882;28;20236;-84
2023/09/24 11:13:10;;;;;;;2.30;1.90;;;;;;;22.63;33.79;99698.63;6863862;28;20235;-85
2023/09/24 11:16:33;;;;;;;2.37;1.90;;;;;;;24.68;29.56;99686.81;6861166;28;20242;-85
2023/09/24 11:19:55;;;;;;;3.03;1.87;;;;;;;24.24;32.64;99643.44;6862234;28;20553;-85
2023/09/24 11:23:17;;;;;;;3.40;2.07;;;;;;;25.29;30.34;99590.97;6861281;28;20774;-86
2023/09/24 11:26:38;;;;;;;1.80;1.53;;;;;;;26.57;28.65;99675.47;6863083;28;20296;-86
2023/09/24 11:30:00;;;;;;;2.30;1.90;;;;;;;27.06;28.86;99677.00;6866990;28;20200;-86
2023/09/24 11:33:24;;;;;;;1.93;1.73;;;;;;;26.97;27.99;99659.38;6865564;28;20711;-84
2023/09/24 11:36:53;;;;;;;2.77;1.80;;;;;;;27.02;27.96;99655.72;6839517;29;20194;-87
2023/09/24 11:40:25;;;;;;;2.03;1.83;;;;;;;28.20;26.86;99656.59;6853007;28;20219;-84
2023/09/24 11:43:56;;;;;;;2.00;1.80;;;;;;;27.23;26.78;99554.72;6866232;28;20275;-85
2023/09/24 11:47:18;;;;;;;2.50;1.83;;;;;;;27.45;27.94;99649.22;6867428;28;20198;-84
2023/09/24 11:50:42;;;;;;;2.20;1.73;;;;;;;26.50;27.62;99644.53;6866312;28;20243;-83
2023/09/24 11:54:04;;;;;;;1.97;1.60;;;;;;;26.83;28.08;99625.16;6867482;28;20225;-85
2023/09/24 11:57:25;;;;;;;2.43;1.90;;;;;;;27.55;27.90;99621.41;6868319;28;20232;-85
2023/09/24 12:00:47;;;;;;;2.37;1.80;;;;;;;26.90;28.03;99562.00;6870833;28;20209;-85
2023/09/24 12:04:09;;;;;;;4.03;2.30;;;;;;;26.93;26.79;99547.56;6869677;28;20229;-85
2023/09/24 12:07:33;;;;;;;2.17;1.97;;;;;;;27.30;26.54;99616.16;6870842;28;20213;-84
2023/09/24 12:10:55;;;;;;;3.07;2.07;;;;;;;25.53;29.81;99620.44;6872516;28;20251;-85
2023/09/24 12:14:16;;;;;;;1.80;1.70;;;;;;;26.39;28.02;99524.84;6872271;28;20246;-84
2023/09/24 12:17:38;;;;;;;3.93;2.07;;;;;;;27.39;27.25;99590.28;6872697;28;20197;-84
2023/09/24 12:21:00;;;;;;;2.30;2.03;;;;;;;27.46;27.58;99606.53;6873130;28;20228;-84
2023/09/24 12:24:22;;;;;;;2.17;1.90;;;;;;;26.54;27.29;99487.97;6873805;28;20727;-85
2023/09/24 12:27:44;;;;;;;2.43;2.07;;;;;;;25.11;30.76;99619.16;6872749;28;20216;-84
2023/09/24 12:31:05;;;;;;;4.10;1.93;;;;;;;25.08;30.55;99616.97;6873156;28;20204;-84
2023/09/24 12:34:27;;;;;;;2.83;2.33;;;;;;;25.02;29.59;99607.03;6870464;28;20256;-84
2023/09/24 12:37:48;;;;;;;1.97;1.80;;;;;;;24.80;30.09;99610.13;6865890;28;20242;-85
2023/09/24 12:41:12;;;;;;;2.17;1.97;;;;;;;23.92;30.55;99566.50;6863504;28;20696;-85
2023/09/24 12:44:34;;;;;;;5.10;2.30;;;;;;;24.88;29.12;99520.41;6863753;28;20391;-85
2023/09/24 12:47:55;;;;;;;2.60;2.00;;;;;;;24.56;30.20;99611.75;6864016;28;20271;-85
2023/09/24 12:51:17;;;;;;;2.30;1.93;;;;;;;24.45;30.04;99599.06;6862860;28;20364;-85
2023/09/24 12:54:39;;;;;;;2.70;1.80;;;;;;;24.54;29.55;99602.91;6864466;28;20253;-85
2023/09/24 12:58:01;;;;;;;4.23;2.30;;;;;;;24.73;29.96;99601.28;6867861;28;20304;-85
2023/09/24 13:01:23;;;;;;;2.80;2.00;;;;;;;24.51;29.08;99570.41;6868163;28;20241;-84
2023/09/24 13:04:45;;;;;;;2.07;1.57;;;;;;;24.44;29.51;99585.56;6874515;28;20322;-85
2023/09/24 13:08:06;;;;;;;2.13;1.90;;;;;;;24.80;29.06;99601.84;6874446;28;20705;-82
2023/09/24 13:11:29;;;;;;;2.20;2.00;;;;;;;24.41;28.81;99581.41;6877612;28;20213;-84
2023/09/24 13:14:52;;;;;;;2.27;1.80;;;;;;;24.77;28.24;99599.63;6875911;28;20251;-84
2023/09/24 13:18:13;;;;;;;2.23;1.93;;;;;;;24.11;26.65;99534.56;6885995;28;20210;-85
2023/09/24 13:21:35;;;;;;;2.43;1.80;;;;;;;24.54;26.60;99589.13;6878466;28;20688;-85
2023/09/24 13:24:57;;;;;;;2.17;1.97;;;;;;;24.74;26.49;99569.84;6869861;28;20263;-83
2023/09/24 13:28:18;;;;;;;2.40;1.97;;;;;;;24.74;25.85;99589.16;6867648;28;20303;-84
2023/09/24 13:31:42;;;;;;;3.33;1.90;;;;;;;25.32;26.69;99577.44;6875069;28;20202;-86
2023/09/24 13:35:06;;;;;;;3.37;1.90;;;;;;;24.96;25.95;99495.03;6874529;28;20217;-85
2023/09/24 13:38:28;;;;;;;2.07;1.80;;;;;;;25.27;25.66;99507.63;6907823;28;20265;-85
2023/09/24 13:41:49;;;;;;;2.37;1.87;;;;;;;24.98;25.88;99581.94;6920584;28;20210;-86
2023/09/24 13:45:11;;;;;;;2.30;2.10;;;;;;;25.53;25.74;99580.94;6910180;28;20227;-86
2023/09/24 13:48:34;;;;;;;2.20;2.00;;;;;;;25.68;24.91;99551.31;6874675;28;20292;-85
2023/09/24 13:51:56;;;;;;;2.17;1.97;;;;;;;24.25;26.46;99565.97;6869763;28;20294;-85
2023/09/24 13:55:17;;;;;;;1.83;1.67;;;;;;;25.18;25.04;99572.78;6869602;28;20244;-86
2023/09/24 13:58:39;;;;;;;3.13;2.27;;;;;;;23.39;28.71;99575.13;6870267;28;20712;-84
2023/09/24 14:02:03;;;;;;;3.43;1.90;;;;;;;23.99;27.42;99553.28;6866880;28;20302;-84
2023/09/24 14:05:26;;;;;;;3.03;1.90;;;;;;;24.29;26.24;99569.00;6867853;28;20260;-84
2023/09/24 14:12:27;;;;;;;2.63;2.17;;;;;;;24.53;26.49;99561.81;6870027;28;20238;-85
2023/09/24 14:15:49;;;;;;;2.43;1.83;;;;;;;24.42;27.03;99565.72;6868348;28;20347;-85
2023/09/24 14:19:11;;;;;;;2.23;2.03;;;;;;;24.73;27.55;99570.94;6869067;28;20229;-85
2023/09/24 14:22:34;;;;;;;3.27;2.07;;;;;;;24.54;26.26;99506.41;6867972;28;20317;-85
2023/09/24 14:25:55;;;;;;;2.80;2.03;;;;;;;24.54;26.31;99567.06;6867864;28;20235;-85
2023/09/24 14:29:17;;;;;;;3.13;2.20;;;;;;;23.71;26.90;99559.25;6868855;28;21101;-85
2023/09/24 14:32:39;;;;;;;3.13;1.77;;;;;;;24.92;26.26;99547.19;6868504;28;20697;-86
2023/09/24 14:36:00;;;;;;;2.77;1.70;;;;;;;25.57;25.94;99532.31;6869850;28;20250;-86
2023/09/24 14:39:23;;;;;;;1.70;1.60;;;;;;;24.34;27.16;99557.97;6878964;28;20222;-85
2023/09/24 14:42:45;;;;;;;2.33;1.77;;;;;;;25.07;25.44;99555.41;6893883;28;20625;-86
2023/09/24 14:46:08;;;;;;;2.80;2.03;;;;;;;23.96;26.13;99470.34;6893750;28;20653;-86
2023/09/24 14:49:31;;;;;;;2.30;1.97;;;;;;;24.17;26.87;99541.72;6881323;28;20207;-85
2023/09/24 14:52:53;;;;;;;2.13;1.90;;;;;;;24.68;27.56;99554.41;6868421;28;20238;-85
2023/09/24 14:56:20;;;;;;;2.43;2.20;;;;;;;25.24;25.83;99547.66;6869633;28;20611;-85
2023/09/24 14:59:42;;;;;;;2.33;1.97;;;;;;;25.56;26.74;99539.78;6869572;28;20215;-85
2023/09/24 15:03:04;;;;;;;2.60;2.00;;;;;;;25.26;27.82;99522.53;6869933;28;20314;-86
2023/09/24 15:06:26;;;;;;;2.10;1.90;;;;;;;25.58;27.75;99542.25;6870655;28;20267;-85
2023/09/24 15:09:48;;;;;;;2.30;2.10;;;;;;;24.96;27.99;99472.94;6867765;28;20235;-86
2023/09/24 15:13:12;;;;;;;2.53;1.93;;;;;;;25.38;26.60;99526.63;6866169;28;20320;-86
2023/09/24 15:16:33;;;;;;;4.00;2.37;;;;;;;24.14;27.65;99469.78;6866287;28;20683;-86
2023/09/24 15:19:55;;;;;;;2.90;1.77;;;;;;;24.00;29.13;99523.78;6866091;28;20597;-85
2023/09/24 15:23:18;;;;;;;2.60;2.20;;;;;;;24.51;29.05;99536.47;6866353;28;20714;-85
2023/09/24 15:26:39;;;;;;;2.07;1.80;;;;;;;24.14;29.15;99524.91;6867012;28;20326;-86
2023/09/24 15:30:04;;;;;;;3.13;2.13;;;;;;;24.34;29.71;99522.97;6866254;28;20666;-85
2023/09/24 15:33:25;;;;;;;3.97;1.93;;;;;;;25.11;30.05;99525.31;6865168;28;20242;-86
2023/09/24 15:36:47;;;;;;;2.10;1.80;;;;;;;25.34;28.66;99511.72;6866282;28;20242;-86
2023/09/24 15:40:10;;;;;;;2.30;1.80;;;;;;;25.63;28.69;99506.31;6866041;28;20231;-85
2023/09/24 15:43:31;;;;;;;4.97;2.20;;;;;;;24.60;28.44;99494.28;6864911;28;20325;-86
2023/09/24 15:46:54;;;;;;;2.43;1.90;;;;;;;23.43;29.73;99405.56;6866401;28;20229;-85
2023/09/24 15:50:16;;;;;;;2.37;2.10;;;;;;;23.97;29.12;99505.91;6868035;28;20243;-86
2023/09/24 15:53:38;;;;;;;3.03;1.80;;;;;;;23.50;30.40;99513.50;6848367;28;20631;-85
2023/09/24 15:56:59;;;;;;;3.60;2.30;;;;;;;23.27;31.31;99502.97;6866777;28;20209;-85
2023/09/24 16:00:21;;;;;;;2.37;1.93;;;;;;;24.14;30.54;99506.44;6866418;28;20223;-86